Date,TemperatureHighF,TemperatureAvgF,TemperatureLowF,DewpointHighF,DewpointAvgF,DewpointLowF,HumidityHigh,HumidityAvg,HumidityLow,PressureMaxIn,PressureMinIn,WindSpeedMaxMPH,WindSpeedAvgMPH,GustSpeedMaxMPH,PrecipitationSumIn
2012-1-1,57.6,44.0,37.6,53.0,37.7,28.2,98,79,61,30.24,30.00,21,2,21,0.21
2012-1-2,37.6,27.9,17.8,29.4,16.3,10.2,85,62,45,30.27,30.11,23,3,23,0.00
2012-1-3,25.4,18.3,14.7,15.0,10.7,6.9,87,72,58,30.49,30.25,20,2,25,0.01
2012-1-4,47.4,30.4,16.4,28.1,15.2,6.9,79,56,27,30.50,30.20,14,1,14,0.00
2012-1-5,55.9,43.3,35.1,31.8,25.6,13.7,79,53,20,30.22,30.12,19,2,19,0.00
2012-1-6,62.9,46.3,33.0,36.0,27.2,22.8,70,50,28,30.20,30.04,13,1,13,0.00
2012-1-7,54.8,49.3,42.0,51.8,44.5,28.8,96,84,52,30.12,30.00,12,0,12,0.13
2012-1-8,51.1,49.6,48.0,50.6,48.7,46.9,98,97,92,30.23,30.12,4,0,4,0.10
2012-1-9,56.5,52.3,49.1,55.4,51.5,48.6,99,97,88,30.18,30.05,16,0,16,0.55
2012-1-10,52.4,50.2,48.2,50.7,49.0,46.8,98,96,91,30.11,29.89,11,0,11,0.02
2012-1-11,57.9,50.1,44.4,53.3,48.2,42.7,99,93,75,29.89,29.44,23,2,23,0.49
2012-1-12,46.2,39.2,21.9,42.7,35.5,13.7,94,86,66,29.86,29.56,28,4,28,0.40
2012-1-13,28.6,22.5,18.0,20.0,16.4,11.9,88,77,65,30.26,29.85,24,2,24,0.03
2012-1-14,42.7,32.0,22.1,27.2,19.8,13.2,80,61,45,30.34,30.13,22,2,22,0.04
2012-1-15,46.4,36.0,26.9,27.3,22.9,14.2,81,61,28,30.54,30.17,20,2,22,0.00
2012-1-16,43.3,36.5,29.4,31.3,25.3,20.6,78,64,49,30.57,30.36,11,1,11,0.00
2012-1-17,55.0,48.2,39.7,52.2,43.2,29.6,95,83,62,30.36,29.94,24,3,24,0.80
2012-1-18,42.2,33.4,27.2,38.5,27.5,22.7,92,79,61,30.19,30.04,15,2,15,0.00
2012-1-19,42.1,32.7,24.8,29.0,25.0,22.2,93,75,53,30.26,30.09,10,0,10,0.00
2012-1-20,44.6,39.0,34.4,44.0,37.3,27.3,98,94,70,30.20,30.03,10,0,10,0.38
2012-1-21,58.5,49.8,43.3,55.8,48.6,42.8,99,96,79,30.10,29.85,30,1,30,0.89
2012-1-22,50.4,47.0,43.7,48.8,45.9,43.1,99,96,91,30.22,30.09,16,1,16,0.02
2012-1-23,55.4,50.4,46.4,52.1,48.2,45.6,99,92,80,30.10,29.94,18,2,18,0.69
2012-1-24,59.7,48.8,39.7,48.2,35.3,24.1,94,64,27,30.31,30.05,15,1,15,0.00
2012-1-25,59.7,48.3,35.9,43.6,35.4,28.2,82,62,43,30.36,30.14,7,0,7,0.00
2012-1-26,61.1,55.6,49.8,55.1,50.7,42.0,96,84,70,30.14,29.60,26,3,26,0.36
2012-1-27,59.0,44.7,36.4,54.2,39.5,32.2,94,82,63,30.12,29.57,33,3,33,0.29
2012-1-28,52.2,39.4,31.4,42.8,29.3,18.0,95,68,49,30.36,30.09,17,1,17,0.01
2012-1-29,48.6,36.3,26.3,25.2,16.3,9.5,68,45,24,30.47,30.33,20,1,20,0.00
2012-1-30,56.7,44.1,36.6,28.5,22.6,17.7,62,43,31,30.49,30.35,14,1,14,0.00
2012-1-31,60.4,46.8,35.0,33.2,25.4,20.4,68,46,23,30.47,30.30,13,1,13,0.00
2012-2-1,48.5,45.7,42.9,47.4,39.4,25.6,98,81,42,30.32,30.13,6,0,6,0.65
2012-2-2,61.4,51.5,42.8,49.8,42.1,31.5,100,73,38,30.35,30.10,15,1,15,0.07
2012-2-3,62.2,46.9,34.8,38.0,33.5,30.1,86,62,32,30.48,30.33,12,1,12,0.00
2012-2-4,47.9,43.7,40.5,47.6,40.4,30.5,99,89,53,30.35,30.08,9,0,9,0.78
2012-2-5,55.4,50.0,43.0,52.3,46.1,38.6,99,87,69,30.15,30.03,16,2,16,0.01
2012-2-6,55.2,44.6,37.2,43.7,38.9,33.1,96,81,58,30.24,30.12,14,1,14,0.00
2012-2-7,54.6,41.6,31.5,40.2,31.6,26.8,94,70,35,30.27,30.14,9,1,12,0.00
2012-2-8,46.4,39.5,34.9,34.7,30.8,28.4,81,71,60,30.29,30.16,15,2,21,0.00
2012-2-9,51.7,38.2,30.1,30.6,27.4,24.3,83,67,38,30.34,30.17,13,1,13,0.00
2012-2-10,47.4,37.2,29.6,32.3,29.1,25.2,91,74,43,30.22,29.98,14,1,14,0.00
2012-2-11,36.3,24.9,15.1,31.2,19.5,6.5,92,80,64,30.40,29.90,21,2,21,0.00
2012-2-12,33.2,21.5,11.6,17.2,10.0,4.5,75,62,45,30.50,30.38,18,2,18,0.03
2012-2-13,47.1,33.4,19.7,24.8,17.5,13.1,79,55,28,30.40,30.10,19,1,19,0.02
2012-2-14,39.3,34.6,32.0,37.7,32.7,23.2,98,93,52,30.20,30.07,9,0,15,0.16
2012-2-15,62.1,47.2,35.4,43.2,37.4,31.1,97,72,39,30.34,30.14,11,1,11,0.00
2012-2-16,54.1,47.5,43.7,51.7,43.8,36.1,98,88,59,30.20,30.07,13,1,13,0.31
2012-2-17,62.1,48.4,39.3,45.5,39.0,34.1,93,73,37,30.20,30.06,14,1,14,0.00
2012-2-18,59.1,49.4,40.5,44.9,38.7,32.8,93,67,51,30.14,29.90,10,1,10,0.07
2012-2-19,46.3,41.2,31.6,44.4,39.3,28.5,96,93,88,30.05,29.69,14,2,14,0.59
2012-2-20,58.0,40.5,28.6,36.0,30.1,25.5,96,71,32,30.31,30.03,15,1,15,0.01
2012-2-21,52.6,43.7,35.9,42.7,33.2,23.4,81,67,52,30.26,30.02,27,4,27,0.00
2012-2-22,58.4,51.2,42.8,50.0,41.8,30.8,92,71,54,30.04,29.59,27,4,27,0.28
2012-2-23,70.3,61.5,52.3,56.2,50.2,47.3,91,68,47,29.67,29.51,28,4,36,0.01
2012-2-24,64.5,52.7,33.8,57.6,42.4,23.5,84,69,37,30.07,29.52,33,5,33,0.05
2012-2-25,45.7,35.8,29.7,25.4,19.6,14.2,73,53,32,30.38,30.06,36,3,36,0.00
2012-2-26,58.2,40.7,27.0,25.4,20.0,15.0,70,46,23,30.52,30.33,11,1,11,0.00
2012-2-27,62.7,47.9,38.3,42.6,31.5,23.4,68,54,39,30.48,30.31,15,1,15,0.00
2012-2-28,70.8,53.6,39.2,48.3,39.3,31.4,79,60,37,30.44,30.19,16,1,16,0.00
2012-2-29,62.9,57.7,51.7,57.8,54.3,48.0,98,89,76,30.19,29.83,27,4,33,0.30
2012-3-1,70.3,59.9,51.5,56.3,40.7,29.2,88,53,24,29.94,29.81,18,2,18,0.03
2012-3-2,67.0,56.3,46.9,59.4,49.4,32.3,95,79,46,29.90,29.63,26,2,26,0.42
2012-3-3,59.4,46.2,41.0,54.7,34.3,20.6,94,67,34,29.88,29.59,19,2,19,0.59
2012-3-4,41.0,36.6,31.6,25.6,21.9,17.9,70,55,45,30.08,29.82,23,3,23,0.00
2012-3-5,44.5,38.7,32.3,30.4,21.4,14.6,65,50,37,30.53,29.92,29,5,29,0.00
2012-3-6,67.2,43.5,27.4,28.6,20.6,12.0,72,44,15,30.65,30.43,15,2,15,0.00
2012-3-7,59.0,49.5,41.4,46.0,36.4,23.7,79,61,46,30.59,30.37,16,2,16,0.00
2012-3-8,65.0,57.6,52.2,54.1,48.9,45.9,95,74,53,30.37,30.08,23,2,23,0.78
2012-3-9,53.9,47.6,40.7,50.9,36.1,24.7,97,68,38,30.40,30.08,15,2,15,0.42
2012-3-10,65.2,48.6,34.4,33.2,27.4,21.6,74,47,24,30.50,30.34,12,1,12,0.00
2012-3-11,67.0,51.3,37.0,41.7,31.6,22.2,68,48,28,30.54,30.35,11,1,11,0.00
2012-3-12,55.9,52.5,50.2,51.4,48.4,40.9,97,86,68,30.39,30.26,13,1,13,0.34
2012-3-13,73.8,59.3,51.8,61.5,52.0,46.8,99,80,43,30.27,30.12,13,0,13,0.38
2012-3-14,76.2,64.6,50.3,54.9,50.1,46.0,88,61,40,30.29,30.15,11,1,11,0.00
2012-3-15,77.4,63.0,53.5,59.5,51.3,46.9,88,67,42,30.33,30.15,16,1,16,0.01
2012-3-16,73.1,60.1,50.8,61.4,54.6,50.0,98,84,53,30.34,30.12,18,1,18,0.41
2012-3-17,72.3,60.3,52.9,60.5,54.4,51.2,96,82,56,30.30,30.15,8,0,8,0.05
2012-3-18,76.6,64.3,54.4,61.1,54.1,47.7,97,72,45,30.29,30.13,14,1,14,0.21
2012-3-19,80.2,67.3,55.7,58.6,53.5,48.1,92,64,38,30.21,30.05,15,1,15,0.00
2012-3-20,80.8,71.3,59.0,58.6,52.8,49.3,80,53,35,30.20,29.98,17,1,17,0.00
2012-3-21,77.8,69.7,57.5,57.6,52.5,41.6,89,55,38,30.24,30.06,21,3,21,0.00
2012-3-22,73.3,68.2,58.7,61.2,55.7,40.6,92,65,51,30.21,30.06,13,3,15,0.03
2012-3-23,69.2,66.2,59.9,61.8,59.2,50.5,97,79,71,30.11,29.91,16,1,16,0.11
2012-3-24,62.9,53.8,0.0,52.5,42.5,0.0,92,58,49,29.92,29.76,15,4,15,0.01
2012-3-25,63.5,51.8,0.0,49.7,42.0,0.0,93,58,57,29.97,29.78,16,1,16,0.00
2012-3-26,74.6,63.5,0.0,50.1,42.9,0.0,81,41,35,30.06,29.92,16,2,16,0.00
2012-3-27,75.6,59.9,0.0,49.7,38.3,0.0,87,34,35,30.24,30.03,18,2,18,0.00
2012-3-28,74.2,60.8,0.0,54.6,46.2,0.0,76,52,47,30.24,29.93,22,2,22,0.00
2012-3-29,77.2,63.5,0.0,56.3,48.8,0.0,73,51,43,30.01,29.83,15,2,16,0.00
2012-3-30,74.0,65.5,54.9,60.1,55.5,50.5,91,72,48,30.04,29.81,13,1,21,0.10
2012-3-31,72.8,64.5,57.5,58.1,55.9,52.2,92,75,53,29.87,29.73,15,1,16,0.01
2012-4-1,75.7,70.5,66.5,56.3,53.5,51.3,63,55,44,29.87,29.71,15,1,15,0.00
2012-4-2,81.8,73.6,64.8,62.5,57.4,53.6,83,58,45,29.87,29.70,17,2,19,0.00
2012-4-3,81.0,71.6,61.1,62.8,59.1,47.0,85,65,51,29.98,29.80,18,1,18,0.00
2012-4-4,68.5,68.5,68.5,58.7,58.7,58.7,71,71,71,29.93,29.84,2,2,2,0.00
2012-4-5,72.2,67.9,55.0,60.0,56.3,51.8,95,68,55,29.74,29.59,5,1,19,0.03
2012-4-6,66.9,57.6,49.8,52.8,42.6,34.7,97,60,37,30.10,29.70,13,1,14,0.04
2012-4-7,70.7,54.2,39.6,46.7,38.3,33.2,84,57,31,30.30,30.09,14,1,14,0.00
2012-4-8,72.3,58.6,46.8,50.1,41.7,35.7,74,54,38,30.22,30.07,20,2,20,0.00
2012-4-9,70.3,57.4,47.2,38.6,31.8,18.3,57,40,17,30.13,29.99,20,2,23,0.00
2012-4-10,62.6,55.1,47.2,40.1,33.7,27.3,56,44,36,30.04,29.93,21,3,21,0.00
2012-4-11,57.9,45.2,36.1,31.8,25.5,20.3,63,47,30,30.20,29.99,15,1,15,0.00
2012-4-12,62.9,45.8,31.4,33.9,26.8,20.4,70,50,25,30.32,30.12,14,1,14,0.00
2012-4-13,68.8,54.3,38.3,39.1,33.7,28.3,77,48,25,30.28,30.15,18,1,18,0.00
2012-4-14,74.5,59.3,46.8,51.0,41.7,34.0,67,53,39,30.33,30.12,15,1,15,0.00
2012-4-15,74.8,62.4,48.9,56.8,50.1,43.1,83,65,49,30.21,30.10,22,2,22,0.00
2012-4-16,75.5,67.0,61.5,59.7,56.9,53.6,83,70,54,30.17,30.05,24,2,24,0.00
2012-4-17,72.8,61.2,54.2,63.2,56.2,53.1,100,85,57,30.20,30.07,5,0,11,0.50
2012-4-18,61.1,54.9,52.6,58.9,54.2,52.0,99,98,90,30.11,30.03,11,0,11,1.10
2012-4-19,72.0,58.7,49.0,59.0,53.0,47.9,99,83,53,30.08,29.91,12,0,12,0.01
2012-4-20,66.3,58.0,50.3,56.3,52.6,49.2,97,83,60,29.97,29.83,10,0,10,0.00
2012-4-21,63.1,56.5,52.5,61.5,54.8,50.0,98,94,88,29.86,29.72,11,0,11,0.09
2012-4-22,54.2,47.1,38.7,50.0,42.1,30.8,93,83,70,29.81,29.66,17,2,17,0.00
2012-4-23,53.6,41.9,35.7,36.9,29.8,24.0,81,63,39,29.90,29.73,13,1,13,0.00
2012-4-24,56.2,46.3,39.4,44.2,35.9,26.3,96,68,47,29.94,29.81,20,2,21,0.09
2012-4-25,74.3,57.3,44.4,59.3,51.3,43.6,99,83,53,29.94,29.81,19,1,24,0.07
2012-4-26,65.0,61.9,54.7,61.3,57.6,53.8,99,86,73,29.93,29.79,24,2,24,1.53
2012-4-27,74.1,65.5,60.1,66.6,59.5,56.3,99,82,59,30.04,29.89,12,1,12,0.01
2012-4-28,78.2,67.5,57.1,64.7,57.7,51.7,98,74,42,30.10,29.97,14,1,17,0.00
2012-4-29,80.8,67.8,57.7,66.0,60.3,57.1,99,79,52,30.14,30.03,11,0,11,0.00
2012-4-30,81.5,70.1,59.8,65.4,57.6,46.3,97,68,34,30.18,30.03,20,1,20,0.00
2012-5-1,80.0,70.7,61.1,66.7,60.0,56.3,90,70,51,30.13,30.01,13,0,13,0.00
2012-5-2,83.5,72.5,64.0,69.0,62.7,56.4,92,73,49,30.12,30.00,11,0,11,0.00
2012-5-3,80.2,70.7,60.2,65.9,61.8,56.1,97,75,46,30.14,30.02,14,0,14,0.00
2012-5-4,73.8,65.6,59.5,65.7,61.8,58.5,98,88,72,30.12,29.96,14,0,14,0.15
2012-5-5,79.3,67.2,59.0,66.6,60.7,56.3,99,81,51,30.02,29.87,12,1,15,0.05
2012-5-6,79.5,67.9,58.7,65.4,60.9,57.3,96,80,56,29.99,29.87,4,0,8,0.02
2012-5-7,69.5,63.7,59.7,66.5,62.0,59.1,100,94,86,30.00,29.87,5,0,9,0.79
2012-5-8,74.6,67.7,61.1,66.3,61.8,60.1,99,82,64,29.92,29.81,8,1,12,0.05
2012-5-9,63.9,57.9,52.3,60.6,56.2,47.1,99,94,84,29.88,29.78,9,0,10,0.11
2012-5-10,67.3,55.9,47.6,50.9,45.5,40.4,88,69,45,30.03,29.86,13,1,13,0.00
2012-5-11,72.3,57.3,44.7,56.6,47.2,40.9,89,70,49,30.20,30.02,10,0,12,0.00
2012-5-12,66.4,59.6,52.6,59.9,53.9,46.9,88,81,75,30.33,30.18,7,0,7,0.00
2012-5-13,60.3,57.2,55.0,56.6,55.5,54.0,99,94,84,30.21,30.05,12,1,12,1.00
2012-5-14,72.4,62.2,57.0,67.7,60.2,56.4,99,93,76,30.04,29.90,13,0,13,0.07
2012-5-15,70.3,62.6,58.2,64.8,59.8,57.3,99,91,75,29.99,29.92,12,0,12,0.01
2012-5-16,75.0,62.8,55.6,63.8,57.3,53.8,100,84,55,30.02,29.91,11,0,11,0.01
2012-5-17,77.0,64.5,53.0,62.6,56.1,51.5,96,76,46,30.03,29.90,10,0,10,0.00
2012-5-18,74.6,62.8,54.6,63.4,57.9,53.8,98,84,61,30.08,29.99,9,0,9,0.00
2012-5-19,80.6,65.6,55.8,67.3,59.5,55.2,99,82,58,30.15,30.02,13,0,13,0.00
2012-5-20,78.6,66.2,56.2,66.1,58.1,52.8,99,77,48,30.16,30.02,10,0,10,0.00
2012-5-21,77.0,62.9,56.8,64.6,58.4,53.9,98,86,56,30.06,29.92,19,0,19,0.41
2012-5-22,69.3,60.5,56.7,65.2,58.9,55.9,99,95,79,29.94,29.82,10,0,12,0.05
2012-5-23,71.0,61.7,56.2,65.0,59.6,55.7,99,93,73,29.92,29.84,6,0,7,0.02
2012-5-24,78.9,67.2,59.4,63.4,58.4,51.2,100,76,41,30.01,29.90,12,0,12,0.00
2012-5-25,83.3,70.7,60.3,70.0,61.7,57.6,94,75,47,30.11,29.99,7,0,7,0.00
2012-5-26,85.0,72.6,62.5,71.2,64.5,60.5,94,77,53,30.17,30.05,6,0,6,0.00
2012-5-27,84.7,72.9,63.1,70.5,64.7,61.0,96,77,48,30.11,29.98,7,0,7,0.00
2012-5-28,82.5,72.7,62.7,68.0,63.5,60.7,94,74,53,30.04,29.90,10,0,10,0.00
2012-5-29,78.7,69.6,64.1,69.4,65.0,62.6,98,86,67,29.95,29.80,9,0,9,0.01
2012-5-30,83.0,70.3,61.4,64.9,58.3,46.7,100,70,30,29.87,29.78,10,0,11,0.00
2012-5-31,76.2,67.1,55.7,67.7,57.9,50.6,91,73,56,29.92,29.74,7,0,7,0.00
2012-6-1,71.8,62.2,52.4,63.1,58.7,47.1,98,89,65,29.90,29.70,14,1,14,0.90
2012-6-2,66.0,56.1,47.4,52.3,48.1,45.3,94,76,51,29.99,29.87,16,1,16,0.00
2012-6-3,75.5,62.5,48.6,61.8,53.5,46.5,96,74,48,30.04,29.85,13,0,13,0.00
2012-6-4,75.5,67.1,61.9,66.2,61.5,56.9,96,83,61,29.86,29.73,13,1,13,0.04
2012-6-5,73.3,63.5,57.2,63.2,57.3,51.6,98,81,56,29.84,29.72,10,0,10,0.25
2012-6-6,74.8,63.7,55.0,61.4,54.7,48.8,96,74,43,29.98,29.81,9,0,9,0.00
2012-6-7,76.8,64.6,56.3,62.9,57.0,53.7,95,78,52,30.05,29.97,10,0,10,0.00
2012-6-8,79.4,67.2,56.0,62.8,56.5,52.7,93,70,46,30.10,29.96,10,0,10,0.00
2012-6-9,75.9,67.7,62.0,66.9,61.0,56.2,91,79,65,30.10,29.97,4,0,4,0.00
2012-6-10,67.5,64.0,57.9,64.4,60.6,56.0,97,89,74,30.11,30.00,12,0,12,0.18
2012-6-11,73.2,67.3,63.8,69.4,65.4,62.9,98,94,84,30.06,29.96,11,0,11,0.04
2012-6-12,80.6,70.9,65.0,72.8,66.7,62.3,98,87,66,29.97,29.89,14,0,14,0.00
2012-6-13,83.9,70.4,60.8,70.1,64.3,59.5,98,82,57,29.98,29.90,6,0,10,0.00
2012-6-14,79.0,68.2,60.9,70.0,63.8,58.9,97,86,68,30.14,29.96,14,0,14,0.76
2012-6-15,79.9,68.1,60.4,71.0,63.6,59.8,99,86,62,30.22,30.06,7,0,7,0.02
2012-6-16,78.2,67.7,60.3,68.7,62.7,57.0,95,85,64,30.25,30.09,13,0,13,0.02
2012-6-17,78.3,69.0,63.1,68.6,63.2,60.9,95,83,62,30.15,29.98,9,0,9,0.00
2012-6-18,80.7,70.5,62.7,67.4,63.0,59.4,97,79,56,30.08,29.99,9,0,9,0.00
2012-6-19,84.3,71.8,61.4,69.2,63.1,58.9,95,75,52,30.18,30.07,9,0,9,0.00
2012-6-20,83.7,72.4,62.8,70.1,64.3,60.1,96,77,46,30.18,30.06,7,0,7,0.00
2012-6-21,84.0,70.9,63.8,72.2,66.5,62.6,97,87,57,30.11,29.93,7,0,7,0.48
2012-6-22,83.3,71.6,63.9,75.3,67.1,63.1,99,86,63,29.97,29.83,10,0,10,0.07
2012-6-23,83.7,72.6,64.0,73.2,66.8,63.1,99,83,55,29.98,29.89,3,0,7,0.00
2012-6-24,87.2,75.2,65.0,71.5,65.8,56.8,97,75,37,30.00,29.85,6,0,7,0.00
2012-6-25,87.0,75.2,65.3,72.6,66.1,61.5,96,75,51,29.88,29.70,12,0,12,0.00
2012-6-26,83.5,72.3,64.2,65.0,58.2,46.9,87,63,39,29.86,29.72,10,0,10,0.00
2012-6-27,82.3,68.8,54.6,60.0,53.0,47.3,85,59,38,30.01,29.85,12,0,12,0.00
2012-6-28,90.1,74.9,59.0,71.8,58.3,50.8,85,59,33,30.09,29.93,13,0,13,0.00
2012-6-29,94.3,81.0,69.0,72.9,63.4,55.2,79,56,36,29.97,29.82,6,0,6,0.00
2012-6-30,96.2,82.0,69.1,76.4,66.8,62.0,86,62,37,29.91,29.82,4,0,4,0.00
2012-7-1,95.5,82.1,67.1,78.2,69.1,64.1,91,66,40,29.97,29.86,11,0,23,0.12
2012-7-2,83.4,73.3,64.8,74.0,67.5,62.9,99,83,62,30.13,29.94,14,0,14,0.89
2012-7-3,86.8,73.1,65.6,73.9,66.2,60.2,94,80,56,30.06,29.93,12,0,12,0.03
2012-7-4,87.3,73.8,62.7,75.4,67.3,61.5,99,82,54,30.09,29.94,10,0,10,0.01
2012-7-5,89.8,75.6,67.0,77.3,68.5,61.4,97,80,52,30.07,29.89,19,0,19,0.01
2012-7-6,87.6,74.5,62.7,74.7,67.0,60.0,97,79,56,30.05,29.91,7,0,7,0.00
2012-7-7,90.2,77.9,67.0,75.1,68.9,65.0,96,76,47,30.04,29.93,6,0,6,0.00
2012-7-8,89.3,77.0,70.8,77.4,70.7,66.9,94,82,61,30.03,29.89,10,0,10,0.00
2012-7-9,84.5,75.0,67.5,73.8,68.9,65.1,97,82,65,29.96,29.88,15,0,15,0.00
2012-7-10,83.8,72.1,66.0,73.7,68.1,64.8,97,88,65,30.00,29.88,11,0,11,0.05
2012-7-11,70.7,68.1,66.6,69.2,66.7,65.0,98,95,89,30.08,29.97,6,0,6,0.12
2012-7-12,68.7,66.8,64.9,67.9,65.9,64.1,98,97,95,30.11,30.05,7,0,7,0.28
2012-7-13,75.5,69.8,65.8,72.6,68.4,65.2,99,95,87,30.14,30.05,9,0,12,0.18
2012-7-14,79.3,70.9,67.1,74.8,68.6,66.2,99,93,73,30.19,30.07,9,0,9,0.78
2012-7-15,82.3,72.1,66.3,75.4,69.2,65.7,99,91,69,30.21,30.08,7,0,7,0.00
2012-7-16,85.5,74.2,67.5,75.2,69.8,66.9,99,87,59,30.13,29.95,10,0,10,0.01
2012-7-17,86.6,73.5,66.2,75.8,68.7,64.7,98,86,59,30.04,29.93,7,0,7,0.00
2012-7-18,84.5,72.9,65.4,75.1,68.6,64.2,99,87,66,30.05,29.93,7,0,7,0.00
2012-7-19,85.8,75.2,66.3,74.6,69.3,65.4,99,83,60,30.06,29.92,11,0,12,0.00
2012-7-20,81.6,73.2,65.5,74.9,68.9,64.2,98,87,69,29.98,29.90,5,0,9,0.17
2012-7-21,84.4,72.9,67.1,74.5,69.0,65.8,98,88,62,30.07,29.93,18,0,19,0.11
2012-7-22,85.1,75.3,67.8,74.9,68.6,65.1,99,81,57,30.17,30.05,13,0,13,0.42
2012-7-23,83.3,74.6,66.3,75.8,69.8,65.0,98,85,69,30.22,30.06,6,0,6,0.00
2012-7-24,86.5,77.6,70.8,76.9,71.0,68.4,93,81,63,30.07,29.92,16,0,16,0.00
2012-7-25,86.3,77.8,70.6,76.5,71.4,67.9,94,81,65,29.99,29.88,8,0,8,0.00
2012-7-26,87.3,78.1,69.7,75.2,70.6,67.9,97,79,57,29.95,29.82,10,0,10,0.00
2012-7-27,85.7,77.9,72.6,73.3,69.9,67.4,87,77,60,29.94,29.84,12,0,12,0.00
2012-7-28,87.8,75.7,66.2,73.6,67.6,63.6,96,77,50,30.03,29.93,12,0,13,0.00
2012-7-29,84.5,73.0,62.9,68.8,63.8,60.3,95,74,50,30.03,29.93,10,0,10,0.00
2012-7-30,88.2,75.1,65.8,72.5,65.6,61.7,92,74,48,30.00,29.87,11,0,11,0.00
2012-7-31,80.2,71.3,64.7,73.9,68.0,63.0,97,90,72,30.01,29.84,9,0,9,0.67
2012-8-1,85.0,70.4,60.7,76.8,66.6,60.1,99,89,66,29.98,29.85,11,0,11,0.01
2012-8-2,87.7,74.3,63.4,75.8,66.6,59.1,97,78,54,29.95,29.82,9,0,9,0.00
2012-8-3,78.7,70.7,66.2,73.0,67.9,64.7,97,91,78,30.03,29.86,7,0,7,0.17
2012-8-4,80.0,70.6,66.5,74.6,68.9,65.6,98,95,77,30.14,30.00,6,0,6,0.35
2012-8-5,82.4,71.7,66.7,75.9,69.4,66.1,99,93,74,30.20,30.08,9,0,9,1.19
2012-8-6,84.0,70.7,66.5,73.9,68.6,66.2,100,94,66,30.15,30.01,5,0,5,0.18
2012-8-7,79.0,71.9,67.6,73.9,69.9,67.0,99,94,79,30.03,29.92,5,0,5,0.00
2012-8-8,85.2,74.6,68.3,76.7,69.8,66.2,99,86,62,30.01,29.91,11,0,11,0.00
2012-8-9,80.8,68.8,65.0,73.0,66.7,63.6,99,93,73,29.99,29.82,17,0,17,0.21
2012-8-10,78.8,68.4,63.8,72.8,66.6,63.2,99,94,73,29.88,29.78,11,0,11,0.41
2012-8-11,77.9,67.9,61.6,70.4,63.4,55.4,98,86,65,29.97,29.83,11,0,11,0.03
2012-8-12,80.5,66.1,55.2,66.7,59.2,53.6,97,80,55,30.07,29.96,11,0,11,0.00
2012-8-13,78.2,65.7,57.7,67.7,60.5,53.3,98,84,64,30.07,29.98,3,0,7,0.01
2012-8-14,79.0,67.4,58.5,70.4,62.7,55.2,98,85,69,30.01,29.87,7,0,7,0.00
2012-8-15,78.8,69.3,63.2,70.0,63.9,59.3,99,84,58,30.00,29.89,17,0,17,0.00
2012-8-16,81.0,70.0,58.5,67.6,60.8,55.9,98,74,44,30.09,29.94,12,0,12,0.01
2012-8-17,79.5,68.7,60.7,68.4,63.0,58.9,96,83,59,30.02,29.88,10,0,10,0.00
2012-8-18,79.0,69.5,64.1,69.4,64.2,61.3,96,84,67,29.92,29.81,8,0,8,0.00
2012-8-19,73.3,65.9,61.2,68.1,62.6,58.3,98,89,75,29.91,29.82,5,0,5,0.52
2012-8-20,77.1,66.3,57.6,64.4,57.4,53.3,95,75,48,29.98,29.87,10,0,10,0.00
2012-8-21,78.4,65.5,54.5,63.5,56.4,52.4,96,74,45,30.08,29.97,12,0,12,0.00
2012-8-22,80.8,67.0,56.2,64.0,57.5,53.7,94,73,43,30.15,30.04,7,0,7,0.00
2012-8-23,81.7,68.2,60.0,68.9,61.7,56.8,97,81,55,30.16,30.05,9,0,9,0.09
2012-8-24,80.3,67.9,61.2,70.3,63.3,58.0,99,87,49,30.19,30.03,7,0,7,0.03
2012-8-25,80.5,67.2,60.1,70.1,63.3,59.1,98,89,60,30.19,30.04,5,0,5,0.07
2012-8-26,81.8,69.9,61.2,72.4,64.5,60.3,99,85,54,30.21,30.05,5,0,5,0.01
2012-8-27,84.3,72.4,62.7,70.7,64.7,60.7,98,79,48,30.15,29.97,6,0,6,0.00
2012-8-28,81.5,69.5,63.6,71.8,66.3,62.4,98,90,68,30.04,29.92,6,0,6,0.08
2012-8-29,82.5,72.0,67.3,74.5,69.1,66.8,99,91,70,30.00,29.88,6,0,7,0.01
2012-8-30,78.8,71.9,67.7,73.4,69.3,66.5,99,92,76,30.14,29.96,6,0,6,0.00
2012-8-31,83.6,73.7,67.7,73.2,69.0,66.8,99,86,64,30.23,30.11,10,0,10,0.00
2012-9-1,85.5,74.5,66.5,74.2,69.1,65.6,99,84,62,30.19,30.01,10,0,10,0.00
2012-9-2,83.3,72.2,67.3,72.6,68.8,65.7,99,90,64,30.06,29.89,16,0,16,0.40
2012-9-3,77.1,69.6,66.3,71.6,67.9,65.6,99,94,78,29.97,29.87,13,0,16,0.23
2012-9-4,74.4,70.0,67.3,72.4,69.1,66.8,99,97,89,29.92,29.87,5,0,5,0.07
2012-9-5,83.0,73.3,67.5,73.6,69.4,67.2,99,89,65,29.93,29.82,5,0,12,0.00
2012-9-6,83.5,73.6,68.1,72.9,68.0,64.4,98,84,56,29.95,29.84,13,0,13,0.00
2012-9-7,85.2,71.8,62.3,72.9,65.8,61.4,99,83,50,30.02,29.82,9,0,9,0.00
2012-9-8,76.5,67.5,57.0,69.7,64.7,55.1,97,91,73,29.91,29.75,10,0,10,0.19
2012-9-9,74.0,60.1,50.0,60.9,53.5,48.9,98,81,52,30.07,29.90,14,0,14,0.01
2012-9-10,75.3,61.6,50.3,60.0,54.2,49.0,98,78,49,30.19,30.04,12,0,12,0.00
2012-9-11,74.5,63.1,54.5,63.5,56.9,52.5,96,81,58,30.28,30.14,9,0,9,0.00
2012-9-12,77.3,67.1,58.5,63.2,59.4,56.8,96,78,53,30.33,30.21,10,0,10,0.00
2012-9-13,75.1,64.9,56.0,60.6,56.9,50.7,97,77,45,30.34,30.21,7,0,7,0.00
2012-9-14,74.0,65.8,55.6,63.8,59.2,54.1,96,80,62,30.29,30.18,10,0,10,0.00
2012-9-15,80.5,65.0,54.8,65.6,59.0,53.7,98,82,54,30.26,30.09,12,0,12,0.00
2012-9-16,75.0,66.5,60.7,67.1,62.4,59.3,97,87,71,30.12,30.01,6,0,6,0.00
2012-9-17,73.0,65.4,61.9,66.6,63.1,60.8,99,93,70,30.06,29.75,13,0,13,0.31
2012-9-18,68.0,63.5,55.4,65.3,62.1,54.1,99,95,86,29.96,29.65,22,1,22,1.54
2012-9-19,70.8,58.2,48.6,60.9,54.1,47.5,99,87,65,30.11,29.95,8,0,8,0.01
2012-9-20,74.0,62.3,55.1,64.5,57.0,54.3,99,84,54,30.16,30.01,12,0,12,0.01
2012-9-21,76.2,63.3,54.8,65.4,57.7,54.0,98,83,51,30.12,29.97,11,0,11,0.00
2012-9-22,77.5,66.0,56.1,65.8,58.1,46.4,95,77,56,30.08,29.92,16,1,16,0.00
2012-9-23,70.5,57.6,48.9,54.0,41.7,29.9,90,58,28,30.20,30.05,14,1,14,0.00
2012-9-24,70.6,53.6,39.3,51.7,42.9,36.8,93,69,44,30.30,30.14,10,0,10,0.00
2012-9-25,74.0,59.0,46.5,61.7,52.5,44.9,96,80,56,30.29,30.16,8,0,8,0.00
2012-9-26,78.7,64.9,55.4,65.5,58.4,54.5,97,81,48,30.24,30.12,6,0,6,0.00
2012-9-27,76.9,64.3,56.0,65.2,59.7,54.8,98,86,62,30.25,30.11,7,0,7,0.01
2012-9-28,74.5,66.6,56.8,67.5,62.2,55.7,98,86,73,30.16,30.00,5,0,5,0.00
2012-9-29,72.5,63.8,58.3,67.6,61.4,55.6,99,92,74,30.02,29.87,11,0,11,0.04
2012-9-30,70.0,60.5,54.4,61.6,56.9,53.2,98,89,58,29.93,29.81,4,0,4,0.00
2012-10-1,63.9,60.9,58.6,63.6,60.4,57.9,99,98,93,29.83,29.65,14,1,14,1.19
2012-10-2,74.0,65.7,62.4,66.0,61.1,56.8,100,86,63,29.94,29.67,16,0,16,0.53
2012-10-3,76.2,63.9,57.3,61.8,57.3,43.3,96,81,32,30.19,29.93,12,0,12,0.00
2012-10-4,73.8,61.8,54.6,61.3,55.2,51.0,99,81,48,30.30,30.17,13,0,13,0.00
2012-10-5,74.0,59.7,47.4,60.1,53.2,46.0,99,81,56,30.27,30.04,9,0,9,0.01
2012-10-6,68.5,57.9,51.3,62.8,55.5,49.7,98,92,79,30.07,29.94,12,0,12,0.00
2012-10-7,55.0,49.2,43.3,54.7,47.8,41.9,100,95,82,30.15,29.97,14,0,14,0.26
2012-10-8,49.3,46.8,43.6,48.8,46.2,42.5,99,98,96,30.22,30.11,5,0,5,0.14
2012-10-9,61.6,50.1,45.0,53.0,46.9,44.5,99,90,68,30.19,30.06,10,0,10,0.00
2012-10-10,56.9,50.7,44.6,52.2,48.2,43.4,99,91,81,30.22,30.09,10,0,10,0.01
2012-10-11,69.0,52.5,41.6,52.9,45.2,39.3,98,78,41,30.34,30.21,6,0,6,0.01
2012-10-12,71.1,58.5,52.9,60.3,53.7,46.6,96,84,66,30.29,30.19,13,0,13,0.00
2012-10-13,68.2,58.9,53.0,55.5,52.7,47.8,100,81,59,30.37,30.24,10,0,10,0.00
2012-10-14,66.7,58.2,50.7,59.9,53.7,47.3,91,85,75,30.28,29.98,12,0,12,0.00
2012-10-15,66.8,58.9,49.2,60.0,52.6,43.0,97,81,55,29.98,29.85,19,1,19,0.93
2012-10-16,69.8,54.0,43.8,49.4,42.2,36.1,93,67,33,30.04,29.90,14,1,14,0.00
2012-10-17,71.2,54.7,42.7,49.3,43.6,39.5,91,68,37,30.02,29.82,11,0,11,0.00
2012-10-18,64.9,57.6,51.9,57.8,51.3,40.9,97,80,61,29.84,29.75,18,1,18,0.08
2012-10-19,64.3,54.8,47.4,44.0,36.1,31.0,79,51,32,29.83,29.71,27,2,27,0.00
2012-10-20,63.7,52.5,47.2,47.3,41.5,37.7,85,67,48,30.01,29.77,17,1,17,0.00
2012-10-21,72.0,54.0,40.3,51.9,43.4,38.7,96,71,38,30.21,30.01,14,0,14,0.00
2012-10-22,77.6,59.5,46.4,54.5,47.8,42.4,87,67,42,30.28,30.11,7,0,7,0.00
2012-10-23,77.1,62.1,51.1,56.8,51.6,48.1,92,70,42,30.23,30.08,9,0,9,0.00
2012-10-24,80.3,63.0,49.8,56.1,50.3,46.0,94,67,31,30.24,30.05,6,0,6,0.00
2012-10-25,80.0,62.9,50.2,56.6,50.8,46.2,88,66,43,30.16,30.01,10,0,10,0.00
2012-10-26,79.8,66.7,55.0,59.9,55.5,52.2,92,69,41,30.09,29.90,9,0,9,0.00
2012-10-27,65.3,56.9,46.7,57.1,51.9,44.2,95,84,70,29.91,29.77,15,1,15,0.00
2012-10-28,48.0,43.7,38.4,45.1,41.9,36.4,97,93,88,29.94,29.81,13,0,13,0.40
2012-10-29,38.3,35.9,33.5,36.6,34.2,31.1,96,93,88,29.94,29.78,15,0,15,0.19
2012-10-30,35.7,34.1,32.4,34.0,31.4,28.9,96,90,81,29.86,29.66,27,2,27,0.14
2012-10-31,52.6,41.4,34.5,36.9,29.3,21.9,89,65,35,29.92,29.80,20,2,20,0.01
2012-11-1,53.3,42.0,32.5,31.7,25.0,19.6,81,53,30,30.02,29.90,21,2,21,0.00
2012-11-2,63.9,52.7,43.6,45.5,36.3,22.6,62,54,43,30.03,29.89,22,2,22,0.00
2012-11-3,70.5,55.7,40.8,56.1,41.3,27.8,72,59,45,30.17,29.96,17,1,17,0.00
2012-11-4,63.6,56.3,39.9,54.2,48.0,36.1,87,74,63,30.07,29.91,16,1,16,0.00
2012-11-5,59.9,46.3,35.9,39.6,32.1,25.2,90,62,29,30.14,29.99,12,0,12,0.00
2012-11-6,44.7,41.2,37.7,40.5,37.5,32.1,98,87,61,30.07,29.95,11,0,11,0.24
2012-11-7,45.0,41.2,39.0,40.3,38.4,36.3,96,90,80,30.09,29.90,14,0,14,0.12
2012-11-8,59.0,44.5,34.4,40.2,34.5,30.4,90,71,38,30.22,30.08,16,1,16,0.00
2012-11-9,66.2,53.2,33.0,41.2,35.0,29.7,90,52,30,30.37,30.21,7,0,7,0.00
2012-11-10,70.7,54.3,40.9,41.2,35.2,31.0,72,51,29,30.41,30.25,7,0,7,0.00
2012-11-11,67.8,55.0,44.5,50.5,41.6,33.9,75,61,41,30.45,30.27,18,2,19,0.00
2012-11-12,64.1,56.5,41.4,54.6,49.8,38.3,95,79,66,30.30,30.12,22,3,22,0.37
2012-11-13,54.1,40.1,30.3,41.1,31.5,28.4,94,73,44,30.45,30.28,16,1,16,0.01
2012-11-14,52.4,40.7,29.5,34.9,30.9,25.9,88,69,45,30.49,30.30,6,0,6,0.00
2012-11-15,61.4,47.4,39.8,42.2,37.1,33.9,84,68,47,30.32,30.19,12,1,12,0.00
2012-11-16,60.5,46.5,33.0,42.5,34.0,27.6,93,64,41,30.39,30.25,10,0,10,0.00
2012-11-17,63.7,47.5,34.8,34.4,28.7,22.0,78,51,22,30.50,30.33,9,0,9,0.00
2012-11-18,64.5,48.5,37.3,38.1,29.2,20.5,72,48,32,30.49,30.31,7,0,7,0.00
2012-11-19,63.7,49.7,38.6,44.8,39.2,35.3,91,69,44,30.38,30.20,13,0,13,0.00
2012-11-20,64.5,51.7,42.9,42.9,39.3,37.1,84,64,40,30.22,30.07,15,1,15,0.00
2012-11-21,66.3,52.7,42.4,45.2,40.6,37.4,84,65,43,30.23,30.09,14,0,14,0.00
2012-11-22,68.0,52.1,40.0,45.1,39.9,36.3,89,65,37,30.30,30.14,10,0,10,0.00
2012-11-23,62.7,47.5,37.5,48.3,39.9,30.5,89,75,53,30.20,30.02,15,1,15,0.00
2012-11-24,41.7,34.5,29.4,30.8,23.8,18.4,84,66,45,30.23,30.07,21,3,21,0.00
2012-11-25,56.9,39.4,25.9,27.7,19.5,13.4,79,49,23,30.28,30.08,7,0,7,0.00
2012-11-26,65.2,48.4,35.0,43.1,26.8,16.6,92,44,27,30.27,30.13,10,0,10,0.07
2012-11-27,45.8,43.3,39.0,45.0,41.7,36.4,97,94,88,30.28,30.12,12,1,12,0.24
2012-11-28,54.1,41.2,33.0,38.0,30.2,19.8,95,69,30,30.44,30.26,14,1,14,0.00
2012-11-29,57.7,42.3,29.7,35.8,30.7,25.5,86,66,42,30.52,30.34,6,0,6,0.00
2012-11-30,55.2,44.0,32.5,42.2,36.5,29.3,91,75,60,30.46,30.31,16,1,17,0.00
2012-12-1,59.2,47.9,38.5,46.1,41.3,36.1,94,79,60,30.46,30.32,6,0,6,0.00
2012-12-2,64.8,54.0,45.9,50.9,46.3,42.5,93,76,56,30.39,30.25,12,0,12,0.00
2012-12-3,66.3,55.6,45.4,51.5,47.0,43.2,93,74,56,30.36,30.21,10,0,10,0.00
2012-12-4,66.5,56.7,48.5,52.3,48.4,44.8,89,74,58,30.33,30.17,11,1,11,0.00
2012-12-5,59.7,54.7,46.6,55.1,51.2,40.6,96,88,74,30.20,30.10,16,0,16,0.07
2012-12-6,50.0,48.5,46.7,46.0,43.3,41.0,92,82,75,30.25,30.14,7,0,7,0.00
2012-12-7,60.2,52.3,45.9,51.8,47.2,41.7,91,83,70,30.14,29.97,5,0,5,0.00
2012-12-8,65.0,57.7,53.9,54.1,51.8,50.3,91,81,65,30.02,29.94,21,2,21,0.00
2012-12-9,61.7,56.4,52.8,57.9,53.2,51.3,99,89,74,30.08,29.93,14,0,14,0.05
2012-12-10,58.2,53.5,41.4,56.5,51.3,38.7,100,92,85,29.94,29.67,26,2,26,0.93
2012-12-11,42.0,35.2,31.0,39.3,32.5,29.0,94,90,80,30.23,29.84,14,1,14,0.00
2012-12-12,45.8,36.7,32.1,38.6,34.0,30.6,97,90,67,30.34,30.23,5,0,5,0.00
2012-12-13,53.9,40.4,29.6,43.1,36.0,28.5,98,85,64,30.45,30.30,5,0,5,0.01
2012-12-14,56.6,42.3,30.6,41.5,34.8,28.1,96,76,49,30.45,30.25,4,0,4,0.00
2012-12-15,54.5,46.5,38.4,44.0,36.8,31.9,84,70,51,30.27,30.05,7,0,7,0.01
2012-12-16,49.8,47.7,45.1,49.3,46.7,42.6,100,96,82,30.09,29.88,15,0,15,1.83
2012-12-17,53.0,49.0,47.1,51.8,47.9,45.4,99,96,86,29.90,29.67,16,1,16,0.15
2012-12-18,49.6,44.4,39.0,46.9,33.9,24.0,96,69,37,30.03,29.69,19,2,19,0.17
2012-12-19,62.3,49.5,41.4,45.1,36.2,26.1,78,61,50,30.13,29.97,5,0,5,0.00
2012-12-20,47.6,43.5,32.7,47.1,39.4,25.4,98,85,71,30.08,29.62,26,3,26,1.27
2012-12-21,33.1,29.5,25.6,26.5,21.6,15.6,83,72,63,30.23,29.80,30,5,30,0.00
2012-12-22,47.3,36.1,23.9,20.3,11.1,1.0,72,39,19,30.33,30.21,19,2,19,0.00
2012-12-23,48.5,36.9,26.9,40.2,25.4,10.4,94,64,39,30.28,30.10,9,0,9,0.05
2012-12-24,45.7,41.2,37.6,45.4,40.3,36.1,99,97,90,30.11,29.89,15,0,15,1.11
2012-12-25,46.3,43.7,41.6,45.3,43.2,41.1,99,98,92,30.08,29.84,16,1,16,0.22
2012-12-26,53.9,40.3,27.9,48.5,37.2,25.8,98,89,74,29.97,29.42,29,5,29,0.86
2012-12-27,38.6,30.3,27.1,32.3,27.4,25.5,95,89,75,30.18,29.97,19,2,19,0.01
2012-12-28,42.2,34.8,25.9,36.0,31.2,24.7,97,87,73,30.21,29.92,12,0,12,0.28
2012-12-29,37.9,32.4,26.6,36.8,30.2,21.8,97,91,81,30.25,29.81,18,2,18,0.14
2012-12-30,44.0,31.0,22.5,28.6,22.9,19.0,87,73,42,30.51,30.24,15,1,15,0.02
2012-12-31,47.4,37.3,27.9,34.4,25.0,15.7,88,64,30,30.47,30.15,10,0,10,0.00
2013-1-1,45.8,41.9,37.3,44.2,38.6,22.7,98,89,47,30.16,30.00,16,0,16,0.74